sensor_id;sensor_type;location;lat;lon;timestamp;pressure;altitude;pressure_sealevel;temperature;humidity
48968;BME280;46511;53.148;8.204;2023-05-31T00:01:07;102793.97;;;11.71;100.00
48968;BME280;46511;53.148;8.204;2023-05-31T00:03:38;102796.47;;;11.78;100.00
48968;BME280;46511;53.148;8.204;2023-05-31T00:06:14;102798.31;;;11.74;100.00
48968;BME280;46511;53.148;8.204;2023-05-31T00:08:45;102802.88;;;11.70;100.00
48968;BME280;46511;53.148;8.204;2023-05-31T00:11:16;102798.59;;;11.65;100.00
48968;BME280;46511;53.148;8.204;2023-05-31T00:13:48;102795.22;;;11.60;100.00
48968;BME280;46511;53.148;8.204;2023-05-31T00:16:19;102789.00;;;11.59;100.00
48968;BME280;46511;53.148;8.204;2023-05-31T00:18:50;102789.88;;;11.60;100.00
48968;BME280;46511;53.148;8.204;2023-05-31T00:21:21;102789.00;;;11.59;100.00
48968;BME280;46511;53.148;8.204;2023-05-31T00:23:53;102790.00;;;11.55;100.00
48968;BME280;46511;53.148;8.204;2023-05-31T00:26:24;102794.50;;;11.53;100.00
48968;BME280;46511;53.148;8.204;2023-05-31T00:28:56;102790.25;;;11.46;100.00
48968;BME280;46511;53.148;8.204;2023-05-31T00:31:27;102789.38;;;11.47;100.00
48968;BME280;46511;53.148;8.204;2023-05-31T00:33:58;102785.84;;;11.47;100.00
48968;BME280;46511;53.148;8.204;2023-05-31T00:36:29;102779.63;;;11.46;100.00
48968;BME280;46511;53.148;8.204;2023-05-31T00:39:01;102771.84;;;11.40;100.00
48968;BME280;46511;53.148;8.204;2023-05-31T00:41:33;102770.00;;;11.42;100.00
48968;BME280;46511;53.148;8.204;2023-05-31T00:44:04;102768.97;;;11.48;100.00
48968;BME280;46511;53.148;8.204;2023-05-31T00:46:37;102779.63;;;11.46;100.00
48968;BME280;46511;53.148;8.204;2023-05-31T00:49:09;102770.75;;;11.45;100.00
48968;BME280;46511;53.148;8.204;2023-05-31T00:51:41;102765.59;;;11.41;100.00
48968;BME280;46511;53.148;8.204;2023-05-31T00:54:13;102776.06;;;11.47;100.00
48968;BME280;46511;53.148;8.204;2023-05-31T00:56:44;102777.06;;;11.43;100.00
48968;BME280;46511;53.148;8.204;2023-05-31T00:59:16;102778.78;;;11.44;100.00
48968;BME280;46511;53.148;8.204;2023-05-31T01:01:47;102777.22;;;11.37;100.00
48968;BME280;46511;53.148;8.204;2023-05-31T01:04:19;102775.47;;;11.36;100.00
48968;BME280;46511;53.148;8.204;2023-05-31T01:06:51;102779.88;;;11.37;100.00
48968;BME280;46511;53.148;8.204;2023-05-31T01:09:22;102778.19;;;11.34;100.00
48968;BME280;46511;53.148;8.204;2023-05-31T01:19:54;102772.25;;;11.25;100.00
48968;BME280;46511;53.148;8.204;2023-05-31T01:25:31;102774.38;;;11.12;100.00
48968;BME280;46511;53.148;8.204;2023-05-31T01:28:13;102770.91;;;11.08;100.00
48968;BME280;46511;53.148;8.204;2023-05-31T01:30:47;102770.19;;;11.03;100.00
48968;BME280;46511;53.148;8.204;2023-05-31T01:33:20;102762.34;;;10.97;100.00
48968;BME280;46511;53.148;8.204;2023-05-31T01:35:52;102769.59;;;10.92;100.00
48968;BME280;46511;53.148;8.204;2023-05-31T01:38:23;102769.75;;;10.86;100.00
48968;BME280;46511;53.148;8.204;2023-05-31T01:40:55;102763.75;;;10.78;100.00
48968;BME280;46511;53.148;8.204;2023-05-31T01:43:28;102770.09;;;10.74;100.00
48968;BME280;46511;53.148;8.204;2023-05-31T01:46:00;102769.25;;;10.70;100.00
48968;BME280;46511;53.148;8.204;2023-05-31T01:48:32;102775.53;;;10.68;100.00
48968;BME280;46511;53.148;8.204;2023-05-31T01:51:04;102773.88;;;10.64;100.00
48968;BME280;46511;53.148;8.204;2023-05-31T01:53:40;102775.78;;;10.58;100.00
48968;BME280;46511;53.148;8.204;2023-05-31T01:56:15;102769.53;;;10.59;100.00
48968;BME280;46511;53.148;8.204;2023-05-31T01:58:47;102766.88;;;10.59;100.00
48968;BME280;46511;53.148;8.204;2023-05-31T02:01:21;102766.88;;;10.59;100.00
48968;BME280;46511;53.148;8.204;2023-05-31T02:03:53;102770.53;;;10.55;100.00
48968;BME280;46511;53.148;8.204;2023-05-31T02:06:25;102778.50;;;10.55;100.00
48968;BME280;46511;53.148;8.204;2023-05-31T02:08:58;102776.81;;;10.51;100.00
48968;BME280;46511;53.148;8.204;2023-05-31T02:11:29;102777.78;;;10.49;100.00
48968;BME280;46511;53.148;8.204;2023-05-31T02:14:01;102776.00;;;10.49;100.00
48968;BME280;46511;53.148;8.204;2023-05-31T02:16:32;102768.94;;;10.48;100.00
48968;BME280;46511;53.148;8.204;2023-05-31T02:19:03;102776.97;;;10.47;100.00
48968;BME280;46511;53.148;8.204;2023-05-31T02:21:35;102767.28;;;10.44;100.00
48968;BME280;46511;53.148;8.204;2023-05-31T02:24:06;102779.78;;;10.39;100.00
48968;BME280;46511;53.148;8.204;2023-05-31T02:26:37;102777.22;;;10.36;100.00
48968;BME280;46511;53.148;8.204;2023-05-31T02:29:09;102776.38;;;10.34;100.00
48968;BME280;46511;53.148;8.204;2023-05-31T02:31:40;102778.03;;;10.38;100.00
48968;BME280;46511;53.148;8.204;2023-05-31T02:34:11;102783.28;;;10.41;100.00
48968;BME280;46511;53.148;8.204;2023-05-31T02:36:43;102780.63;;;10.43;100.00
48968;BME280;46511;53.148;8.204;2023-05-31T02:39:15;102777.97;;;10.41;100.00
48968;BME280;46511;53.148;8.204;2023-05-31T02:41:46;102777.00;;;10.45;100.00
48968;BME280;46511;53.148;8.204;2023-05-31T02:44:17;102779.75;;;10.42;100.00
48968;BME280;46511;53.148;8.204;2023-05-31T02:46:49;102785.97;;;10.40;100.00
48968;BME280;46511;53.148;8.204;2023-05-31T02:49:20;102787.88;;;10.35;100.00
48968;BME280;46511;53.148;8.204;2023-05-31T02:51:52;102777.22;;;10.36;100.00
48968;BME280;46511;53.148;8.204;2023-05-31T02:54:23;102774.44;;;10.42;100.00
48968;BME280;46511;53.148;8.204;2023-05-31T02:56:54;102788.38;;;10.50;100.00
48968;BME280;46511;53.148;8.204;2023-05-31T02:59:25;102780.44;;;10.49;100.00
48968;BME280;46511;53.148;8.204;2023-05-31T03:01:57;102778.69;;;10.48;100.00
48968;BME280;46511;53.148;8.204;2023-05-31T03:04:28;102775.78;;;10.58;100.00
48968;BME280;46511;53.148;8.204;2023-05-31T03:06:59;102773.88;;;10.64;100.00
48968;BME280;46511;53.148;8.204;2023-05-31T03:09:31;102766.69;;;10.67;100.00
48968;BME280;46511;53.148;8.204;2023-05-31T03:12:02;102767.63;;;10.66;100.00
48968;BME280;46511;53.148;8.204;2023-05-31T03:14:34;102767.38;;;10.75;100.00
48968;BME280;46511;53.148;8.204;2023-05-31T03:17:05;102761.91;;;10.81;100.00
48968;BME280;46511;53.148;8.204;2023-05-31T03:19:37;102764.34;;;10.89;100.00
48968;BME280;46511;53.148;8.204;2023-05-31T03:22:08;102773.09;;;10.94;100.00
48968;BME280;46511;53.148;8.204;2023-05-31T03:24:40;102774.00;;;10.93;100.00
48968;BME280;46511;53.148;8.204;2023-05-31T03:27:11;102778.41;;;10.94;100.00
48968;BME280;46511;53.148;8.204;2023-05-31T03:29:44;102775.56;;;11.02;100.00
48968;BME280;46511;53.148;8.204;2023-05-31T03:32:16;102769.13;;;11.10;100.00
48968;BME280;46511;53.148;8.204;2023-05-31T03:34:47;102766.25;;;11.16;100.00
48968;BME280;46511;53.148;8.204;2023-05-31T03:37:18;102770.41;;;11.28;100.00
48968;BME280;46511;53.148;8.204;2023-05-31T03:39:50;102770.16;;;11.36;100.00
48968;BME280;46511;53.148;8.204;2023-05-31T03:42:21;102774.34;;;11.44;100.00
48968;BME280;46511;53.148;8.204;2023-05-31T03:44:52;102775.06;;;11.51;100.00
48968;BME280;46511;53.148;8.204;2023-05-31T03:47:24;102776.69;;;11.55;100.00
48968;BME280;46511;53.148;8.204;2023-05-31T03:49:55;102784.56;;;11.60;100.00
48968;BME280;46511;53.148;8.204;2023-05-31T03:52:27;102782.66;;;11.63;100.00
48968;BME280;46511;53.148;8.204;2023-05-31T03:54:58;102781.59;;;11.70;100.00
48968;BME280;46511;53.148;8.204;2023-05-31T03:57:29;102783.16;;;11.78;100.00
48968;BME280;46511;53.148;8.204;2023-05-31T04:00:01;102781.25;;;11.83;100.00
48968;BME280;46511;53.148;8.204;2023-05-31T04:02:32;102779.28;;;11.89;100.00
48968;BME280;46511;53.148;8.204;2023-05-31T04:05:03;102772.91;;;11.95;100.00
48968;BME280;46511;53.148;8.204;2023-05-31T04:07:35;102773.63;;;12.00;100.00
48968;BME280;46511;53.148;8.204;2023-05-31T04:10:06;102774.31;;;12.07;100.00
48968;BME280;46511;53.148;8.204;2023-05-31T04:12:39;102773.16;;;12.15;100.00
48968;BME280;46511;53.148;8.204;2023-05-31T04:15:10;102781.19;;;12.14;100.00
48968;BME280;46511;53.148;8.204;2023-05-31T04:17:42;102775.34;;;12.29;100.00
48968;BME280;46511;53.148;8.204;2023-05-31T04:20:13;102780.63;;;12.30;100.00
48968;BME280;46511;53.148;8.204;2023-05-31T04:22:44;102784.50;;;12.48;100.00
48968;BME280;46511;53.148;8.204;2023-05-31T04:25:16;102775.22;;;12.60;100.00
48968;BME280;46511;53.148;8.204;2023-05-31T04:27:48;102775.94;;;12.65;100.00
48968;BME280;46511;53.148;8.204;2023-05-31T04:30:20;102780.81;;;12.79;100.00
48968;BME280;46511;53.148;8.204;2023-05-31T04:32:51;102778.88;;;12.84;100.00
48968;BME280;46511;53.148;8.204;2023-05-31T04:35:23;102775.94;;;12.92;100.00
48968;BME280;46511;53.148;8.204;2023-05-31T04:37:55;102780.72;;;13.07;100.00
48968;BME280;46511;53.148;8.204;2023-05-31T04:40:30;102772.00;;;13.28;100.00
48968;BME280;46511;53.148;8.204;2023-05-31T04:42:58;102774.09;;;13.43;100.00
48968;BME280;46511;53.148;8.204;2023-05-31T04:45:33;102775.38;;;13.57;100.00
48968;BME280;46511;53.148;8.204;2023-05-31T04:48:04;102776.88;;;13.64;100.00
48968;BME280;46511;53.148;8.204;2023-05-31T04:50:36;102774.69;;;13.75;100.00
48968;BME280;46511;53.148;8.204;2023-05-31T04:53:08;102781.66;;;13.79;100.00
48968;BME280;46511;53.148;8.204;2023-05-31T04:55:39;102770.38;;;13.94;100.00
48968;BME280;46511;53.148;8.204;2023-05-31T04:58:11;102768.66;;;14.15;100.00
48968;BME280;46511;53.148;8.204;2023-05-31T05:00:42;102763.56;;;14.31;100.00
48968;BME280;46511;53.148;8.204;2023-05-31T05:03:14;102767.78;;;14.37;100.00
48968;BME280;46511;53.148;8.204;2023-05-31T05:05:46;102771.66;;;14.51;100.00
48968;BME280;46511;53.148;8.204;2023-05-31T05:08:18;102764.84;;;14.65;100.00
48968;BME280;46511;53.148;8.204;2023-05-31T05:10:50;102764.47;;;14.74;100.00
48968;BME280;46511;53.148;8.204;2023-05-31T05:13:21;102763.94;;;14.86;100.00
48968;BME280;46511;53.148;8.204;2023-05-31T05:15:52;102769.44;;;15.03;100.00
48968;BME280;46511;53.148;8.204;2023-05-31T05:18:24;102772.44;;;14.96;100.00
48968;BME280;46511;53.148;8.204;2023-05-31T05:20:55;102771.09;;;15.26;100.00
48968;BME280;46511;53.148;8.204;2023-05-31T05:23:27;102773.81;;;15.25;100.00
48968;BME280;46511;53.148;8.204;2023-05-31T05:25:58;102774.78;;;15.63;100.00
48968;BME280;46511;53.148;8.204;2023-05-31T05:28:30;102774.81;;;15.82;100.00
48968;BME280;46511;53.148;8.204;2023-05-31T05:30:56;102770.19;;;15.85;100.00
48968;BME280;46511;53.148;8.204;2023-05-31T05:33:27;102770.47;;;15.98;100.00
48968;BME280;46511;53.148;8.204;2023-05-31T05:35:59;102781.50;;;15.73;100.00
48968;BME280;46511;53.148;8.204;2023-05-31T05:38:31;102775.91;;;15.96;100.00
48968;BME280;46511;53.148;8.204;2023-05-31T05:41:02;102781.75;;;16.23;100.00
48968;BME280;46511;53.148;8.204;2023-05-31T05:43:33;102771.00;;;16.42;100.00
48968;BME280;46511;53.148;8.204;2023-05-31T05:46:04;102774.88;;;16.54;100.00
48968;BME280;46511;53.148;8.204;2023-05-31T05:48:36;102767.38;;;16.61;100.00
48968;BME280;46511;53.148;8.204;2023-05-31T05:51:07;102767.81;;;16.88;100.00
48968;BME280;46511;53.148;8.204;2023-05-31T05:53:39;102758.66;;;16.92;100.00
48968;BME280;46511;53.148;8.204;2023-05-31T05:56:10;102766.19;;;17.35;100.00
48968;BME280;46511;53.148;8.204;2023-05-31T05:58:49;102757.53;;;17.13;100.00
48968;BME280;46511;53.148;8.204;2023-05-31T06:01:16;102759.38;;;17.46;100.00
48968;BME280;46511;53.148;8.204;2023-05-31T06:03:49;102760.47;;;17.08;100.00
48968;BME280;46511;53.148;8.204;2023-05-31T06:06:20;102759.22;;;17.64;100.00
48968;BME280;46511;53.148;8.204;2023-05-31T06:08:52;102754.25;;;17.57;100.00
48968;BME280;46511;53.148;8.204;2023-05-31T06:11:23;102749.53;;;18.09;100.00
48968;BME280;46511;53.148;8.204;2023-05-31T06:13:54;102742.56;;;17.91;100.00
48968;BME280;46511;53.148;8.204;2023-05-31T06:16:28;102752.13;;;18.42;100.00
48968;BME280;46511;53.148;8.204;2023-05-31T06:18:54;102742.78;;;18.64;100.00
48968;BME280;46511;53.148;8.204;2023-05-31T06:21:26;102743.63;;;18.94;100.00
48968;BME280;46511;53.148;8.204;2023-05-31T06:23:57;102734.34;;;20.66;100.00
48968;BME280;46511;53.148;8.204;2023-05-31T06:26:29;102729.41;;;21.62;100.00
48968;BME280;46511;53.148;8.204;2023-05-31T06:29:00;102732.66;;;22.63;100.00
48968;BME280;46511;53.148;8.204;2023-05-31T06:31:32;102726.59;;;24.17;100.00
48968;BME280;46511;53.148;8.204;2023-05-31T06:33:59;102723.34;;;24.97;91.84
48968;BME280;46511;53.148;8.204;2023-05-31T06:36:30;102716.31;;;25.86;77.77
48968;BME280;46511;53.148;8.204;2023-05-31T06:39:02;102714.94;;;27.73;69.03
48968;BME280;46511;53.148;8.204;2023-05-31T06:41:35;102712.94;;;28.10;61.14
48968;BME280;46511;53.148;8.204;2023-05-31T06:44:07;102712.69;;;27.31;61.49
48968;BME280;46511;53.148;8.204;2023-05-31T06:46:38;102723.38;;;26.95;60.91
48968;BME280;46511;53.148;8.204;2023-05-31T06:49:11;102715.47;;;28.57;53.11
48968;BME280;46511;53.148;8.204;2023-05-31T06:51:42;102715.28;;;30.29;49.08
48968;BME280;46511;53.148;8.204;2023-05-31T06:54:08;102722.66;;;29.36;49.47
48968;BME280;46511;53.148;8.204;2023-05-31T06:56:40;102723.97;;;28.72;52.29
48968;BME280;46511;53.148;8.204;2023-05-31T06:59:11;102712.81;;;29.85;47.22
48968;BME280;46511;53.148;8.204;2023-05-31T07:01:42;102712.16;;;29.49;49.99
48968;BME280;46511;53.148;8.204;2023-05-31T07:04:13;102711.84;;;29.26;47.56
48968;BME280;46511;53.148;8.204;2023-05-31T07:06:45;102709.50;;;30.81;45.14
48968;BME280;46511;53.148;8.204;2023-05-31T07:09:17;102707.94;;;29.63;43.73
48968;BME280;46511;53.148;8.204;2023-05-31T07:11:48;102693.25;;;28.34;45.62
48968;BME280;46511;53.148;8.204;2023-05-31T07:14:19;102694.34;;;30.04;44.91
48968;BME280;46511;53.148;8.204;2023-05-31T07:16:51;102691.81;;;30.76;40.79
48968;BME280;46511;53.148;8.204;2023-05-31T07:19:22;102694.75;;;30.33;40.16
48968;BME280;46511;53.148;8.204;2023-05-31T07:21:53;102694.25;;;31.34;40.31
48968;BME280;46511;53.148;8.204;2023-05-31T07:24:25;102692.41;;;31.66;36.20
48968;BME280;46511;53.148;8.204;2023-05-31T07:26:56;102689.50;;;31.12;37.52
48968;BME280;46511;53.148;8.204;2023-05-31T07:29:27;102687.09;;;31.95;36.61
48968;BME280;46511;53.148;8.204;2023-05-31T07:31:59;102689.81;;;33.46;34.73
48968;BME280;46511;53.148;8.204;2023-05-31T07:34:30;102680.38;;;35.53;29.71
48968;BME280;46511;53.148;8.204;2023-05-31T07:37:01;102686.03;;;37.25;28.73
48968;BME280;46511;53.148;8.204;2023-05-31T07:39:33;102676.25;;;35.35;29.85
48968;BME280;46511;53.148;8.204;2023-05-31T07:42:04;102679.78;;;33.60;30.75
48968;BME280;46511;53.148;8.204;2023-05-31T07:44:36;102672.66;;;35.41;30.86
48968;BME280;46511;53.148;8.204;2023-05-31T07:47:08;102673.78;;;35.12;30.69
48968;BME280;46511;53.148;8.204;2023-05-31T07:49:39;102668.31;;;35.19;29.59
48968;BME280;46511;53.148;8.204;2023-05-31T07:52:10;102671.63;;;37.54;29.05
48968;BME280;46511;53.148;8.204;2023-05-31T07:54:42;102672.28;;;36.45;27.88
48968;BME280;46511;53.148;8.204;2023-05-31T07:57:13;102668.88;;;36.37;27.25
48968;BME280;46511;53.148;8.204;2023-05-31T07:59:44;102669.09;;;35.06;27.78
48968;BME280;46511;53.148;8.204;2023-05-31T08:02:16;102667.34;;;34.43;29.21
48968;BME280;46511;53.148;8.204;2023-05-31T08:04:47;102669.06;;;35.00;30.40
48968;BME280;46511;53.148;8.204;2023-05-31T08:07:19;102669.69;;;35.02;28.70
48968;BME280;46511;53.148;8.204;2023-05-31T08:09:50;102663.19;;;35.57;29.42
48968;BME280;46511;53.148;8.204;2023-05-31T08:12:21;102673.72;;;36.08;27.38
48968;BME280;46511;53.148;8.204;2023-05-31T08:14:53;102663.03;;;37.11;25.67
48968;BME280;46511;53.148;8.204;2023-05-31T08:17:24;102662.97;;;35.72;28.70
48968;BME280;46511;53.148;8.204;2023-05-31T08:19:56;102654.16;;;36.89;27.49
48968;BME280;46511;53.148;8.204;2023-05-31T08:22:28;102655.41;;;36.00;27.74
48968;BME280;46511;53.148;8.204;2023-05-31T08:24:59;102652.88;;;36.78;25.72
48968;BME280;46511;53.148;8.204;2023-05-31T08:27:31;102658.41;;;36.05;27.95
48968;BME280;46511;53.148;8.204;2023-05-31T08:30:02;102656.16;;;35.55;27.71
48968;BME280;46511;53.148;8.204;2023-05-31T08:32:35;102655.66;;;36.19;27.49
48968;BME280;46511;53.148;8.204;2023-05-31T08:35:07;102647.69;;;37.08;26.47
48968;BME280;46511;53.148;8.204;2023-05-31T08:37:42;102646.09;;;34.71;27.13
48968;BME280;46511;53.148;8.204;2023-05-31T08:40:14;102649.25;;;34.68;30.15
48968;BME280;46511;53.148;8.204;2023-05-31T08:42:54;102642.78;;;35.17;27.39
48968;BME280;46511;53.148;8.204;2023-05-31T08:45:30;102644.38;;;33.93;28.55
48968;BME280;46511;53.148;8.204;2023-05-31T08:48:11;102644.97;;;35.28;26.96
48968;BME280;46511;53.148;8.204;2023-05-31T08:50:49;102644.69;;;35.64;26.90
48968;BME280;46511;53.148;8.204;2023-05-31T08:53:23;102641.53;;;35.19;27.92
48968;BME280;46511;53.148;8.204;2023-05-31T08:55:56;102639.84;;;34.56;30.01
48968;BME280;46511;53.148;8.204;2023-05-31T08:58:32;102649.59;;;31.71;33.30
48968;BME280;46511;53.148;8.204;2023-05-31T09:01:06;102652.84;;;33.25;31.97
48968;BME280;46511;53.148;8.204;2023-05-31T09:03:38;102634.91;;;34.79;31.69
48968;BME280;46511;53.148;8.204;2023-05-31T09:06:11;102636.41;;;33.47;30.49
48968;BME280;46511;53.148;8.204;2023-05-31T09:08:43;102640.56;;;36.41;27.31
48968;BME280;46511;53.148;8.204;2023-05-31T09:11:14;102635.34;;;34.83;29.72
48968;BME280;46511;53.148;8.204;2023-05-31T09:13:45;102633.72;;;36.24;27.95
48968;BME280;46511;53.148;8.204;2023-05-31T09:16:17;102626.50;;;36.23;27.48
48968;BME280;46511;53.148;8.204;2023-05-31T09:18:48;102636.94;;;36.60;28.75
48968;BME280;46511;53.148;8.204;2023-05-31T09:21:19;102630.75;;;36.32;28.50
48968;BME280;46511;53.148;8.204;2023-05-31T09:23:55;102626.88;;;36.86;26.82
48968;BME280;46511;53.148;8.204;2023-05-31T09:26:29;102639.06;;;36.25;28.32
48968;BME280;46511;53.148;8.204;2023-05-31T09:29:04;102639.69;;;36.47;28.10
48968;BME280;46511;53.148;8.204;2023-05-31T09:31:37;102630.19;;;34.73;27.69
48968;BME280;46511;53.148;8.204;2023-05-31T09:34:24;102631.84;;;36.38;27.91
48968;BME280;46511;53.148;8.204;2023-05-31T09:36:58;102621.38;;;36.46;28.07
48968;BME280;46511;53.148;8.204;2023-05-31T09:39:30;102631.59;;;34.90;27.96
48968;BME280;46511;53.148;8.204;2023-05-31T09:42:04;102625.22;;;37.81;24.82
48968;BME280;46511;53.148;8.204;2023-05-31T09:44:46;102629.91;;;36.38;26.85
48968;BME280;46511;53.148;8.204;2023-05-31T09:47:25;102623.16;;;35.46;27.05
48968;BME280;46511;53.148;8.204;2023-05-31T09:49:56;102619.47;;;36.14;27.66
48968;BME280;46511;53.148;8.204;2023-05-31T09:52:28;102613.66;;;38.09;25.29
48968;BME280;46511;53.148;8.204;2023-05-31T09:55:04;102621.38;;;35.93;27.92
48968;BME280;46511;53.148;8.204;2023-05-31T09:57:37;102624.81;;;36.22;29.57
48968;BME280;46511;53.148;8.204;2023-05-31T10:00:16;102627.22;;;35.51;30.07
48968;BME280;46511;53.148;8.204;2023-05-31T10:02:52;102630.34;;;36.35;29.37
48968;BME280;46511;53.148;8.204;2023-05-31T10:05:25;102634.94;;;34.86;31.55
48968;BME280;46511;53.148;8.204;2023-05-31T10:07:56;102626.00;;;35.86;31.47
48968;BME280;46511;53.148;8.204;2023-05-31T10:10:28;102630.41;;;35.47;31.34
48968;BME280;46511;53.148;8.204;2023-05-31T10:12:59;102619.69;;;37.68;29.16
48968;BME280;46511;53.148;8.204;2023-05-31T10:15:34;102620.69;;;36.97;30.83
48968;BME280;46511;53.148;8.204;2023-05-31T10:18:11;102611.47;;;35.44;31.53
48968;BME280;46511;53.148;8.204;2023-05-31T10:20:48;102610.25;;;38.39;28.44
48968;BME280;46511;53.148;8.204;2023-05-31T10:23:25;102610.78;;;37.14;30.58
48968;BME280;46511;53.148;8.204;2023-05-31T10:26:10;102609.19;;;35.07;32.25
48968;BME280;46511;53.148;8.204;2023-05-31T10:28:47;102610.28;;;36.73;30.55
48968;BME280;46511;53.148;8.204;2023-05-31T10:31:28;102603.28;;;37.22;30.34
48968;BME280;46511;53.148;8.204;2023-05-31T10:34:23;102602.19;;;36.78;30.26
48968;BME280;46511;53.148;8.204;2023-05-31T10:36:56;102601.03;;;39.00;27.25
48968;BME280;46511;53.148;8.204;2023-05-31T10:42:40;102593.91;;;35.24;32.26
48968;BME280;46511;53.148;8.204;2023-05-31T10:45:29;102597.53;;;36.32;30.35
48968;BME280;46511;53.148;8.204;2023-05-31T10:51:18;102601.81;;;36.41;28.73
48968;BME280;46511;53.148;8.204;2023-05-31T10:53:50;102593.47;;;35.75;30.80
48968;BME280;46511;53.148;8.204;2023-05-31T10:56:22;102587.28;;;38.00;28.54
48968;BME280;46511;53.148;8.204;2023-05-31T10:58:54;102583.44;;;39.06;27.30
48968;BME280;46511;53.148;8.204;2023-05-31T11:01:28;102579.34;;;37.40;29.04
48968;BME280;46511;53.148;8.204;2023-05-31T11:04:00;102583.72;;;37.93;27.79
48968;BME280;46511;53.148;8.204;2023-05-31T11:06:32;102584.78;;;36.18;29.40
48968;BME280;46511;53.148;8.204;2023-05-31T11:09:11;102584.56;;;35.99;30.03
48968;BME280;46511;53.148;8.204;2023-05-31T11:11:45;102585.97;;;35.49;30.24
48968;BME280;46511;53.148;8.204;2023-05-31T11:19:37;102578.66;;;37.07;28.39
48968;BME280;46511;53.148;8.204;2023-05-31T11:22:14;102579.84;;;35.67;29.74
48968;BME280;46511;53.148;8.204;2023-05-31T11:27:22;102582.84;;;36.38;27.46
48968;BME280;46511;53.148;8.204;2023-05-31T11:35:06;102583.56;;;37.50;26.61
48968;BME280;46511;53.148;8.204;2023-05-31T11:37:42;102586.75;;;37.02;27.79
48968;BME280;46511;53.148;8.204;2023-05-31T11:40:11;102575.69;;;35.36;30.62
48968;BME280;46511;53.148;8.204;2023-05-31T11:42:45;102569.00;;;35.85;28.65
48968;BME280;46511;53.148;8.204;2023-05-31T11:45:17;102569.19;;;34.33;29.97
48968;BME280;46511;53.148;8.204;2023-05-31T11:48:11;102586.75;;;32.66;33.98
48968;BME280;46511;53.148;8.204;2023-05-31T11:50:56;102572.84;;;36.37;27.68
48968;BME280;46511;53.148;8.204;2023-05-31T11:53:28;102575.53;;;34.90;28.71
48968;BME280;46511;53.148;8.204;2023-05-31T11:56:00;102573.31;;;35.20;27.22
48968;BME280;46511;53.148;8.204;2023-05-31T11:58:31;102577.56;;;36.03;25.99
48968;BME280;46511;53.148;8.204;2023-05-31T12:01:02;102569.00;;;35.65;27.09
48968;BME280;46511;53.148;8.204;2023-05-31T12:03:33;102568.97;;;35.72;27.01
48968;BME280;46511;53.148;8.204;2023-05-31T12:06:10;102565.63;;;36.10;27.39
48968;BME280;46511;53.148;8.204;2023-05-31T12:08:37;102569.00;;;35.65;27.21
48968;BME280;46511;53.148;8.204;2023-05-31T12:11:08;102565.22;;;34.77;27.11
48968;BME280;46511;53.148;8.204;2023-05-31T12:13:40;102566.28;;;35.24;27.03
48968;BME280;46511;53.148;8.204;2023-05-31T12:16:11;102557.59;;;34.79;27.83
48968;BME280;46511;53.148;8.204;2023-05-31T12:18:42;102558.91;;;34.49;28.49
48968;BME280;46511;53.148;8.204;2023-05-31T12:21:14;102553.50;;;35.10;27.96
48968;BME280;46511;53.148;8.204;2023-05-31T12:23:53;102557.09;;;35.04;28.03
48968;BME280;46511;53.148;8.204;2023-05-31T12:26:26;102556.72;;;34.72;28.50
48968;BME280;46511;53.148;8.204;2023-05-31T12:28:58;102551.38;;;35.99;25.21
48968;BME280;46511;53.148;8.204;2023-05-31T12:31:30;102546.41;;;34.53;27.67
48968;BME280;46511;53.148;8.204;2023-05-31T12:34:12;102552.78;;;33.18;29.65
48968;BME280;46511;53.148;8.204;2023-05-31T12:36:45;102547.78;;;34.77;28.20
48968;BME280;46511;53.148;8.204;2023-05-31T12:39:21;102546.00;;;33.57;28.59
48968;BME280;46511;53.148;8.204;2023-05-31T12:41:53;102551.91;;;33.18;29.44
48968;BME280;46511;53.148;8.204;2023-05-31T12:44:25;102547.06;;;33.77;29.08
48968;BME280;46511;53.148;8.204;2023-05-31T12:47:01;102549.81;;;33.77;29.47
48968;BME280;46511;53.148;8.204;2023-05-31T12:49:35;102550.50;;;32.48;30.26
48968;BME280;46511;53.148;8.204;2023-05-31T12:52:07;102553.78;;;32.29;30.25
48968;BME280;46511;53.148;8.204;2023-05-31T12:54:39;102545.13;;;31.57;31.37
48968;BME280;46511;53.148;8.204;2023-05-31T12:57:11;102535.53;;;32.95;30.31
48968;BME280;46511;53.148;8.204;2023-05-31T12:59:43;102543.25;;;31.80;30.79
48968;BME280;46511;53.148;8.204;2023-05-31T13:02:14;102536.19;;;32.67;29.32
48968;BME280;46511;53.148;8.204;2023-05-31T13:04:45;102523.41;;;31.47;31.63
48968;BME280;46511;53.148;8.204;2023-05-31T13:07:17;102527.03;;;32.08;30.47
48968;BME280;46511;53.148;8.204;2023-05-31T13:09:43;102522.56;;;32.22;30.75
48968;BME280;46511;53.148;8.204;2023-05-31T13:12:15;102524.00;;;31.57;30.05
48968;BME280;46511;53.148;8.204;2023-05-31T13:14:46;102523.50;;;31.53;30.22
48968;BME280;46511;53.148;8.204;2023-05-31T13:17:18;102517.47;;;32.78;29.53
48968;BME280;46511;53.148;8.204;2023-05-31T13:19:49;102520.38;;;32.02;29.82
48968;BME280;46511;53.148;8.204;2023-05-31T13:22:16;102513.13;;;32.98;29.11
48968;BME280;46511;53.148;8.204;2023-05-31T13:24:42;102511.47;;;33.18;29.61
48968;BME280;46511;53.148;8.204;2023-05-31T13:27:09;102509.13;;;32.27;30.85
48968;BME280;46511;53.148;8.204;2023-05-31T13:29:40;102505.25;;;31.61;29.91
48968;BME280;46511;53.148;8.204;2023-05-31T13:32:11;102505.81;;;30.55;31.60
48968;BME280;46511;53.148;8.204;2023-05-31T13:34:43;102499.63;;;30.69;32.96
48968;BME280;46511;53.148;8.204;2023-05-31T13:37:14;102497.03;;;31.38;32.47
48968;BME280;46511;53.148;8.204;2023-05-31T13:39:51;102498.03;;;32.05;30.48
48968;BME280;46511;53.148;8.204;2023-05-31T13:42:23;102503.19;;;32.53;30.00